Time;durP1;ratioP1;P1;durP2;ratioP2;P2;SDS_P1;SDS_P2;PMS_P1;PMS_P2;Temp;Humidity;BMP_temperature;BMP_pressure;BME280_temperature;BME280_humidity;BME280_pressure;Samples;Min_cycle;Max_cycle;Signal;HPM_P1;HPM_P2
2023/08/12 00:00:13;;;;;;;11.68;5.40;;;21.50;86.10;;;;;;4965829;28;20423;-75
2023/08/12 00:02:40;;;;;;;12.85;5.63;;;21.50;86.20;;;;;;4967319;28;20039;-75
2023/08/12 00:05:07;;;;;;;10.75;5.93;;;21.40;86.00;;;;;;4966779;28;20030;-75
2023/08/12 00:07:34;;;;;;;10.40;5.55;;;21.50;85.90;;;;;;4964807;28;20072;-74
2023/08/12 00:10:04;;;;;;;11.52;6.00;;;21.50;85.90;;;;;;4965365;28;20058;-76
2023/08/12 00:12:34;;;;;;;11.23;5.88;;;21.40;85.90;;;;;;4965771;28;20051;-76
2023/08/12 00:15:00;;;;;;;14.00;6.00;;;21.40;86.00;;;;;;4965983;28;20023;-74
2023/08/12 00:17:26;;;;;;;10.98;5.30;;;21.30;85.70;;;;;;4957348;28;20042;-75
2023/08/12 00:19:52;;;;;;;14.95;5.53;;;21.40;86.10;;;;;;4950313;28;20035;-78
2023/08/12 00:22:17;;;;;;;12.95;5.85;;;21.40;85.90;;;;;;4963250;28;20539;-74
2023/08/12 00:24:44;;;;;;;11.65;5.07;;;21.40;85.80;;;;;;4962568;28;20458;-74
2023/08/12 00:27:10;;;;;;;11.02;4.95;;;21.40;85.90;;;;;;4961698;28;20043;-75
2023/08/12 00:29:36;;;;;;;9.60;5.20;;;21.30;85.70;;;;;;4965934;28;20057;-74
2023/08/12 00:32:02;;;;;;;10.65;5.07;;;21.40;85.70;;;;;;4951902;28;20484;-75
2023/08/12 00:34:27;;;;;;;9.88;5.20;;;21.30;85.70;;;;;;4946761;28;20974;-75
2023/08/12 00:36:53;;;;;;;9.93;4.82;;;21.40;85.60;;;;;;4977934;28;20050;-73
2023/08/12 00:39:19;;;;;;;10.57;5.35;;;21.30;85.50;;;;;;4963660;28;20551;-76
2023/08/12 00:41:45;;;;;;;11.70;5.60;;;21.30;85.70;;;;;;4965562;28;20038;-74
2023/08/12 00:44:11;;;;;;;11.35;5.40;;;21.30;85.50;;;;;;4966368;28;20042;-74
2023/08/12 00:46:40;;;;;;;11.70;5.68;;;21.30;85.60;;;;;;4962394;28;20472;-75
2023/08/12 00:49:06;;;;;;;10.32;4.90;;;21.30;85.60;;;;;;4949848;28;20022;-75
2023/08/12 00:51:32;;;;;;;9.77;5.28;;;21.30;85.60;;;;;;4960706;28;20049;-76
2023/08/12 00:53:59;;;;;;;9.70;4.85;;;21.30;85.50;;;;;;4970373;28;20027;-74
2023/08/12 00:56:26;;;;;;;14.95;5.55;;;21.30;85.50;;;;;;4986490;28;20259;-74
2023/08/12 00:58:53;;;;;;;10.77;5.47;;;21.30;85.40;;;;;;4977634;28;20018;-75
2023/08/12 01:01:19;;;;;;;10.27;5.47;;;21.40;85.40;;;;;;4976383;28;20519;-74
2023/08/12 01:03:45;;;;;;;10.85;5.40;;;21.30;85.30;;;;;;4976646;28;20037;-74
2023/08/12 01:06:12;;;;;;;13.52;5.95;;;21.30;85.30;;;;;;4970715;28;20443;-74
2023/08/12 01:08:38;;;;;;;12.77;5.60;;;21.30;85.40;;;;;;4974681;28;20026;-74
2023/08/12 01:11:33;;;;;;;11.50;5.30;;;21.30;85.40;;;;;;4968528;28;20038;-76
2023/08/12 01:14:23;;;;;;;11.98;5.22;;;21.30;85.80;;;;;;4994809;28;20573;-75
2023/08/12 01:16:55;;;;;;;12.02;5.53;;;21.30;86.00;;;;;;4973345;28;20039;-76
2023/08/12 01:19:34;;;;;;;10.68;5.93;;;21.30;86.00;;;;;;4973918;28;20490;-73
2023/08/12 01:22:01;;;;;;;12.52;5.65;;;21.20;86.30;;;;;;4968467;28;20043;-75
2023/08/12 01:24:33;;;;;;;12.13;5.22;;;21.20;86.50;;;;;;4949852;29;20444;-74
2023/08/12 01:26:59;;;;;;;12.00;5.70;;;21.20;86.40;;;;;;4947896;28;20082;-74
2023/08/12 01:29:25;;;;;;;9.15;5.25;;;21.10;86.70;;;;;;4950988;28;20492;-73
2023/08/12 01:31:58;;;;;;;13.77;5.97;;;21.10;87.10;;;;;;4947146;28;20146;-76
2023/08/12 01:34:30;;;;;;;12.13;6.13;;;21.10;87.20;;;;;;4946570;29;20039;-74
2023/08/12 01:36:58;;;;;;;13.63;5.72;;;21.10;87.40;;;;;;4943860;28;20053;-74
2023/08/12 01:39:25;;;;;;;11.05;5.78;;;21.10;87.70;;;;;;4947237;28;20039;-75
2023/08/12 01:41:52;;;;;;;12.07;6.25;;;21.10;87.90;;;;;;4948438;28;20090;-76
2023/08/12 01:44:18;;;;;;;9.50;5.43;;;21.00;87.90;;;;;;4945951;28;20031;-77
2023/08/12 01:46:44;;;;;;;12.50;6.25;;;21.00;88.00;;;;;;4947964;28;20043;-75
2023/08/12 01:49:10;;;;;;;11.48;5.85;;;21.00;88.00;;;;;;4945050;28;20096;-76
2023/08/12 01:51:36;;;;;;;11.35;5.50;;;21.00;88.10;;;;;;4942760;28;20202;-78
2023/08/12 01:54:01;;;;;;;11.13;5.68;;;20.90;88.20;;;;;;4947284;28;20034;-77
2023/08/12 01:56:27;;;;;;;11.60;6.03;;;21.00;88.30;;;;;;4944317;29;20467;-76
2023/08/12 01:58:53;;;;;;;11.40;6.57;;;21.00;88.40;;;;;;4946442;28;20035;-75
2023/08/12 02:01:19;;;;;;;13.15;7.35;;;21.00;88.40;;;;;;4948973;28;20035;-73
2023/08/12 02:03:45;;;;;;;10.93;6.15;;;20.90;88.70;;;;;;4949134;29;20400;-74
2023/08/12 02:06:10;;;;;;;12.93;6.85;;;20.90;89.00;;;;;;4949655;28;20062;-76
2023/08/12 02:08:36;;;;;;;15.18;7.25;;;20.90;89.00;;;;;;4951845;28;20050;-74
2023/08/12 02:11:02;;;;;;;13.57;7.75;;;20.90;89.20;;;;;;4946118;28;20047;-77
2023/08/12 02:13:27;;;;;;;13.35;7.32;;;20.90;89.50;;;;;;4947849;28;20042;-78
2023/08/12 02:15:53;;;;;;;13.45;8.30;;;20.90;89.60;;;;;;4955398;28;20053;-75
2023/08/12 02:18:19;;;;;;;15.20;8.60;;;20.90;89.60;;;;;;4970265;28;20035;-74
2023/08/12 02:20:47;;;;;;;14.18;9.23;;;20.80;89.60;;;;;;4958993;28;20082;-74
2023/08/12 02:23:13;;;;;;;15.32;8.88;;;20.80;89.80;;;;;;4963464;28;20038;-75
2023/08/12 02:25:39;;;;;;;14.35;9.07;;;20.80;89.80;;;;;;4960840;28;20353;-75
2023/08/12 02:28:04;;;;;;;14.05;9.57;;;20.80;90.10;;;;;;4966940;28;20106;-75
2023/08/12 02:30:30;;;;;;;15.65;9.80;;;20.70;90.10;;;;;;4965619;28;20054;-74
2023/08/12 02:32:56;;;;;;;16.65;10.63;;;20.70;90.40;;;;;;4964960;28;20035;-73
2023/08/12 02:35:21;;;;;;;16.92;9.70;;;20.70;90.40;;;;;;4961925;28;20034;-77
2023/08/12 02:37:50;;;;;;;15.40;10.30;;;20.70;90.50;;;;;;4969585;28;20038;-75
2023/08/12 02:40:16;;;;;;;12.93;9.63;;;20.70;90.70;;;;;;4966783;28;20019;-77
2023/08/12 02:42:42;;;;;;;12.57;9.48;;;20.70;90.80;;;;;;4967537;28;20459;-78
2023/08/12 02:45:08;;;;;;;14.90;10.13;;;20.70;91.00;;;;;;4967807;28;20029;-79
2023/08/12 02:47:33;;;;;;;17.63;11.40;;;20.70;91.00;;;;;;4958055;28;20031;-75
2023/08/12 02:49:59;;;;;;;14.00;9.60;;;20.70;91.20;;;;;;4957342;28;20027;-76
2023/08/12 02:52:25;;;;;;;17.25;10.85;;;20.70;91.20;;;;;;4968094;28;20411;-75
2023/08/12 02:54:50;;;;;;;15.55;10.70;;;20.70;91.30;;;;;;4981552;28;20460;-77
2023/08/12 02:57:16;;;;;;;14.43;10.40;;;20.70;91.40;;;;;;4970761;28;20066;-79
2023/08/12 02:59:42;;;;;;;14.82;10.88;;;20.70;91.40;;;;;;4969476;28;20030;-79
2023/08/12 03:02:08;;;;;;;16.90;11.10;;;20.70;91.50;;;;;;4958381;28;20047;-75
2023/08/12 03:04:34;;;;;;;13.40;10.65;;;20.70;91.50;;;;;;4952939;28;20029;-75
2023/08/12 03:06:59;;;;;;;13.15;10.70;;;20.70;91.50;;;;;;4952569;28;20125;-79
2023/08/12 03:09:25;;;;;;;13.15;10.70;;;20.70;91.60;;;;;;4965141;28;20066;-73
2023/08/12 03:11:51;;;;;;;12.98;9.60;;;20.60;91.60;;;;;;4952441;28;20034;-74
2023/08/12 03:14:16;;;;;;;11.48;9.57;;;20.70;91.80;;;;;;4962043;28;20027;-76
2023/08/12 03:16:42;;;;;;;11.50;8.27;;;20.60;91.70;;;;;;4952099;28;20043;-77
2023/08/12 03:19:08;;;;;;;12.05;9.40;;;20.70;91.80;;;;;;4957928;28;20486;-77
2023/08/12 03:21:34;;;;;;;11.25;8.43;;;20.70;91.80;;;;;;4956240;28;20369;-74
2023/08/12 03:24:00;;;;;;;10.65;8.95;;;20.70;91.80;;;;;;4957961;28;20078;-75
2023/08/12 03:26:25;;;;;;;9.43;7.20;;;20.70;91.80;;;;;;4959471;28;20062;-77
2023/08/12 03:28:51;;;;;;;11.05;7.47;;;20.70;91.80;;;;;;4961962;28;20437;-74
2023/08/12 03:31:17;;;;;;;10.13;7.47;;;20.70;91.80;;;;;;4956205;28;20045;-76
2023/08/12 03:33:43;;;;;;;9.95;7.47;;;20.60;92.00;;;;;;4957822;28;20272;-76
2023/08/12 03:36:09;;;;;;;8.95;7.32;;;20.60;91.90;;;;;;4964396;28;20039;-74
2023/08/12 03:38:35;;;;;;;9.05;7.10;;;20.60;91.90;;;;;;4969891;28;20027;-75
2023/08/12 03:41:02;;;;;;;9.23;6.80;;;20.60;92.00;;;;;;4971953;28;20182;-76
2023/08/12 03:43:28;;;;;;;9.20;6.53;;;20.60;92.00;;;;;;4971626;28;20051;-77
2023/08/12 03:45:54;;;;;;;9.68;7.13;;;20.60;92.10;;;;;;4968127;28;20058;-76
2023/08/12 03:48:19;;;;;;;8.98;6.38;;;20.60;92.20;;;;;;4949549;28;20035;-76
2023/08/12 03:50:46;;;;;;;9.10;6.70;;;20.50;92.20;;;;;;4950162;28;20040;-75
2023/08/12 03:53:12;;;;;;;9.05;6.10;;;20.50;92.40;;;;;;4952703;28;20424;-76
2023/08/12 03:55:38;;;;;;;8.77;6.00;;;20.50;92.40;;;;;;4955471;28;20514;-76
2023/08/12 03:58:04;;;;;;;7.90;5.35;;;20.50;92.50;;;;;;4975037;28;20037;-76
2023/08/12 04:00:31;;;;;;;9.27;6.22;;;20.50;92.50;;;;;;4964814;28;20113;-73
2023/08/12 04:02:56;;;;;;;7.35;5.82;;;20.50;92.50;;;;;;4956665;28;20081;-75
2023/08/12 04:05:22;;;;;;;9.07;5.78;;;20.40;92.60;;;;;;4951758;28;20039;-75
2023/08/12 04:07:48;;;;;;;9.10;5.72;;;20.40;92.60;;;;;;4956824;28;20036;-78
2023/08/12 04:10:13;;;;;;;8.15;5.65;;;20.40;92.70;;;;;;4966714;28;20134;-76
2023/08/12 04:12:41;;;;;;;7.97;6.03;;;20.40;92.70;;;;;;4951872;28;20039;-76
2023/08/12 04:15:07;;;;;;;8.23;5.60;;;20.40;92.70;;;;;;4957807;28;20065;-78
2023/08/12 04:17:33;;;;;;;8.35;5.30;;;20.30;92.80;;;;;;4979969;28;20141;-76
2023/08/12 04:19:59;;;;;;;7.93;5.72;;;20.30;92.90;;;;;;4985020;28;20049;-76
2023/08/12 04:22:24;;;;;;;8.60;5.47;;;20.40;92.90;;;;;;4975936;28;20126;-75
2023/08/12 04:24:50;;;;;;;7.63;5.00;;;20.40;92.90;;;;;;4963043;28;20031;-78
2023/08/12 04:27:16;;;;;;;8.38;5.03;;;20.40;92.80;;;;;;4958428;28;20038;-76
2023/08/12 04:29:42;;;;;;;9.50;5.55;;;20.40;92.80;;;;;;4959326;28;20050;-77
2023/08/12 04:32:08;;;;;;;7.63;5.55;;;20.40;92.80;;;;;;4952639;28;20464;-76
2023/08/12 04:34:34;;;;;;;8.02;6.13;;;20.40;92.80;;;;;;4948713;28;20074;-74
2023/08/12 04:36:59;;;;;;;8.45;6.22;;;20.40;92.80;;;;;;4957368;28;20039;-77
2023/08/12 04:39:25;;;;;;;8.48;5.93;;;20.40;92.70;;;;;;4952646;28;20439;-75
2023/08/12 04:41:51;;;;;;;8.50;6.97;;;20.40;92.80;;;;;;4969583;28;20107;-79
2023/08/12 04:44:17;;;;;;;9.65;6.00;;;20.30;92.80;;;;;;4979227;28;20027;-78
2023/08/12 04:46:42;;;;;;;8.68;6.30;;;20.30;92.80;;;;;;5000919;28;20043;-79
2023/08/12 04:49:08;;;;;;;7.85;6.40;;;20.30;92.90;;;;;;4955676;28;20023;-75
2023/08/12 04:51:34;;;;;;;9.57;7.35;;;20.40;93.00;;;;;;4965631;28;20050;-76
2023/08/12 04:54:01;;;;;;;10.70;6.93;;;20.40;92.90;;;;;;4975676;28;20049;-74
2023/08/12 04:56:29;;;;;;;9.38;7.10;;;20.40;93.00;;;;;;4974805;28;20093;-74
2023/08/12 04:58:55;;;;;;;8.65;7.03;;;20.40;92.90;;;;;;4978738;28;20042;-74
2023/08/12 05:01:21;;;;;;;9.10;7.03;;;20.30;93.00;;;;;;4969890;28;20065;-75
2023/08/12 05:03:47;;;;;;;9.85;7.97;;;20.30;93.10;;;;;;4978772;28;20109;-73
2023/08/12 05:06:12;;;;;;;7.20;5.40;;;20.40;93.10;;;;;;4969309;28;20129;-75
2023/08/12 05:08:38;;;;;;;5.97;3.95;;;20.10;92.60;;;;;;4959084;28;20088;-78
2023/08/12 05:11:04;;;;;;;6.18;3.67;;;20.00;92.40;;;;;;4956361;28;20472;-76
2023/08/12 05:13:30;;;;;;;9.30;6.65;;;19.40;91.50;;;;;;4959903;28;20118;-75
2023/08/12 05:15:56;;;;;;;11.30;8.05;;;19.10;92.00;;;;;;4965764;28;20034;-79
2023/08/12 05:18:23;;;;;;;12.05;8.32;;;18.80;92.00;;;;;;4978109;28;20227;-75
2023/08/12 05:20:50;;;;;;;15.07;5.43;;;18.50;91.60;;;;;;4974257;28;20040;-77
2023/08/12 05:23:16;;;;;;;9.95;5.85;;;18.20;91.30;;;;;;4958926;28;20330;-75
2023/08/12 05:25:42;;;;;;;10.38;6.22;;;18.00;91.70;;;;;;4962321;28;20097;-74
2023/08/12 05:28:07;;;;;;;9.95;5.88;;;17.90;91.80;;;;;;4969225;28;20093;-75
2023/08/12 05:30:34;;;;;;;8.05;4.30;;;17.90;92.00;;;;;;4966973;28;20078;-77
2023/08/12 05:32:59;;;;;;;9.05;4.38;;;17.80;91.90;;;;;;4968016;28;20074;-78
2023/08/12 05:35:25;;;;;;;9.73;4.68;;;17.80;92.20;;;;;;4966146;28;20483;-76
2023/08/12 05:37:51;;;;;;;7.22;4.15;;;17.80;91.70;;;;;;4970537;28;20027;-76
2023/08/12 05:40:16;;;;;;;7.28;3.90;;;17.80;91.70;;;;;;4967562;28;20110;-76
2023/08/12 05:42:42;;;;;;;10.77;4.43;;;17.60;91.60;;;;;;4969365;28;20116;-77
2023/08/12 05:45:08;;;;;;;11.77;4.50;;;17.60;91.60;;;;;;4963671;28;20629;-78
2023/08/12 05:47:34;;;;;;;10.65;4.88;;;17.70;91.50;;;;;;4959239;28;20089;-77
2023/08/12 05:50:00;;;;;;;8.70;4.97;;;17.60;91.30;;;;;;4952935;28;20024;-74
2023/08/12 05:52:25;;;;;;;8.75;4.28;;;17.80;91.30;;;;;;4950219;28;20047;-75
2023/08/12 05:54:51;;;;;;;9.77;4.45;;;17.70;91.00;;;;;;4953686;28;20032;-76
2023/08/12 05:57:17;;;;;;;10.00;4.72;;;17.70;90.80;;;;;;4973743;28;20396;-74
2023/08/12 05:59:42;;;;;;;8.15;3.58;;;17.70;90.30;;;;;;4972552;28;20042;-78
2023/08/12 06:02:09;;;;;;;11.85;4.40;;;17.70;90.40;;;;;;4956465;28;20045;-75
2023/08/12 06:04:35;;;;;;;8.13;3.55;;;17.70;90.40;;;;;;4956569;28;20122;-74
2023/08/12 06:07:00;;;;;;;10.07;3.55;;;17.80;90.00;;;;;;4958152;28;20490;-75
2023/08/12 06:09:26;;;;;;;7.57;3.50;;;17.90;89.90;;;;;;4956159;28;20040;-75
2023/08/12 06:11:52;;;;;;;7.90;3.35;;;18.00;89.90;;;;;;4960946;28;20057;-76
2023/08/12 06:14:18;;;;;;;6.63;3.47;;;18.10;89.60;;;;;;4951761;28;20094;-74
2023/08/12 06:16:43;;;;;;;9.00;3.50;;;18.10;89.40;;;;;;4984020;28;20022;-74
2023/08/12 06:19:09;;;;;;;7.72;3.08;;;18.20;89.20;;;;;;4960694;28;20365;-75
2023/08/12 06:21:35;;;;;;;8.48;3.55;;;18.30;89.00;;;;;;4960074;28;20031;-74
2023/08/12 06:24:00;;;;;;;9.88;3.55;;;18.30;88.90;;;;;;4967740;28;20058;-76
2023/08/12 06:26:26;;;;;;;11.52;3.50;;;18.40;88.80;;;;;;4966689;28;20031;-76
2023/08/12 06:28:52;;;;;;;8.93;3.30;;;18.50;89.10;;;;;;4966169;28;20031;-75
2023/08/12 06:31:18;;;;;;;7.20;3.00;;;18.60;88.80;;;;;;4965546;28;20046;-76
2023/08/12 06:33:43;;;;;;;8.30;3.20;;;18.50;88.40;;;;;;4968555;28;20039;-76
2023/08/12 06:36:09;;;;;;;7.35;3.00;;;18.50;87.90;;;;;;4964316;28;20114;-75
2023/08/12 06:38:34;;;;;;;8.60;3.13;;;18.50;88.00;;;;;;4967977;28;20427;-76
2023/08/12 06:41:00;;;;;;;8.27;2.83;;;18.60;87.40;;;;;;4963856;28;21034;-77
2023/08/12 06:43:26;;;;;;;8.15;3.40;;;18.40;87.30;;;;;;4957470;28;20102;-74
2023/08/12 06:45:51;;;;;;;7.22;2.83;;;18.40;87.10;;;;;;4968553;28;20038;-75
2023/08/12 06:48:17;;;;;;;8.07;3.17;;;18.40;87.10;;;;;;4972411;28;20386;-75
2023/08/12 06:50:43;;;;;;;9.23;3.08;;;18.50;87.20;;;;;;4972834;28;20448;-79
2023/08/12 06:53:09;;;;;;;8.57;2.50;;;18.60;86.90;;;;;;4948758;28;20078;-75
2023/08/12 06:55:34;;;;;;;7.93;2.88;;;18.70;86.40;;;;;;4959379;28;20129;-76
2023/08/12 06:58:01;;;;;;;9.48;2.90;;;18.90;86.70;;;;;;4950376;28;20835;-77
2023/08/12 07:00:26;;;;;;;9.40;2.47;;;19.10;85.30;;;;;;4950610;28;20068;-74
2023/08/12 07:02:52;;;;;;;7.65;2.35;;;19.10;84.80;;;;;;4960056;28;20050;-76
2023/08/12 07:05:18;;;;;;;7.53;2.47;;;18.90;84.90;;;;;;4951150;28;20031;-75
2023/08/12 07:07:44;;;;;;;8.23;2.78;;;19.00;85.50;;;;;;4961127;28;20081;-74
2023/08/12 07:10:10;;;;;;;7.40;2.90;;;19.10;85.70;;;;;;4952267;28;20030;-73
2023/08/12 07:12:36;;;;;;;8.38;3.33;;;19.20;85.50;;;;;;4954192;28;20483;-73
2023/08/12 07:15:02;;;;;;;8.50;3.67;;;19.40;85.20;;;;;;4958959;28;20110;-74
2023/08/12 07:17:27;;;;;;;9.15;3.35;;;19.60;85.10;;;;;;4967950;28;20027;-74
2023/08/12 07:19:53;;;;;;;9.77;3.92;;;19.60;84.80;;;;;;4975382;28;20101;-75
2023/08/12 07:22:20;;;;;;;10.40;4.35;;;19.90;84.30;;;;;;4972489;28;20070;-75
2023/08/12 07:24:45;;;;;;;10.38;4.20;;;19.90;83.70;;;;;;4953990;28;20031;-75
2023/08/12 07:27:11;;;;;;;12.10;3.58;;;19.90;83.80;;;;;;4957348;28;20038;-78
2023/08/12 07:29:37;;;;;;;9.60;3.65;;;20.00;83.60;;;;;;4953113;28;20066;-74
2023/08/12 07:32:03;;;;;;;10.02;4.00;;;20.10;83.00;;;;;;4949006;28;20471;-76
2023/08/12 07:34:28;;;;;;;8.93;3.58;;;20.10;82.10;;;;;;4961021;28;20323;-75
2023/08/12 07:36:54;;;;;;;8.98;3.58;;;20.20;81.80;;;;;;4954294;28;20479;-76
2023/08/12 07:39:21;;;;;;;8.75;3.80;;;20.10;81.90;;;;;;4963219;28;20468;-76
2023/08/12 07:41:46;;;;;;;11.27;4.20;;;20.20;81.20;;;;;;4958207;28;20047;-76
2023/08/12 07:44:12;;;;;;;11.15;3.90;;;20.40;80.60;;;;;;4954332;28;20555;-76
2023/08/12 07:46:38;;;;;;;9.13;3.25;;;20.60;79.80;;;;;;4964594;28;20042;-74
2023/08/12 07:49:04;;;;;;;10.15;3.20;;;20.90;79.00;;;;;;4968775;28;20490;-77
2023/08/12 07:51:29;;;;;;;7.20;2.92;;;21.10;77.90;;;;;;4968303;28;20049;-76
2023/08/12 07:53:55;;;;;;;10.55;2.80;;;21.00;76.60;;;;;;4969208;28;20406;-76
2023/08/12 07:56:21;;;;;;;7.38;2.90;;;21.00;77.30;;;;;;4981214;28;20031;-75
2023/08/12 07:58:47;;;;;;;9.18;2.97;;;21.30;77.40;;;;;;4957091;28;20460;-76
2023/08/12 08:01:13;;;;;;;8.80;2.72;;;21.40;77.00;;;;;;4942799;28;20027;-75
2023/08/12 08:03:39;;;;;;;6.60;2.60;;;21.40;76.90;;;;;;4946268;28;20031;-74
2023/08/12 08:06:04;;;;;;;8.00;2.70;;;21.50;75.80;;;;;;4948178;28;20494;-75
2023/08/12 08:08:30;;;;;;;9.18;3.00;;;21.10;76.80;;;;;;4950731;28;20514;-74
2023/08/12 08:10:56;;;;;;;7.57;2.78;;;20.90;78.00;;;;;;4952321;28;20039;-75
2023/08/12 08:13:21;;;;;;;8.07;3.03;;;20.70;78.30;;;;;;4954468;28;20069;-73
2023/08/12 08:15:47;;;;;;;6.88;2.70;;;20.50;79.60;;;;;;4955791;28;20085;-75
2023/08/12 08:18:13;;;;;;;8.02;3.10;;;20.60;79.70;;;;;;4971876;28;20030;-76
2023/08/12 08:20:39;;;;;;;5.30;2.15;;;20.60;79.00;;;;;;4975341;28;20034;-78
2023/08/12 08:23:05;;;;;;;8.68;3.05;;;20.70;78.60;;;;;;4960422;28;20078;-76
2023/08/12 08:25:32;;;;;;;12.10;3.40;;;20.70;79.00;;;;;;4963289;28;21565;-74
2023/08/12 08:27:57;;;;;;;11.10;3.30;;;20.80;78.70;;;;;;4975956;28;20037;-74
2023/08/12 08:30:25;;;;;;;8.23;3.00;;;20.80;78.30;;;;;;4976087;28;20031;-75
2023/08/12 08:32:50;;;;;;;6.95;3.17;;;21.20;77.50;;;;;;4972640;28;20131;-75
2023/08/12 08:35:16;;;;;;;10.48;3.33;;;21.40;77.70;;;;;;4974296;28;20217;-75
2023/08/12 08:37:42;;;;;;;7.57;2.70;;;21.60;77.00;;;;;;4967492;28;20100;-75
2023/08/12 08:40:08;;;;;;;7.40;2.83;;;21.60;77.00;;;;;;4966824;28;20149;-77
2023/08/12 08:42:34;;;;;;;9.15;3.00;;;21.70;76.50;;;;;;4964561;28;20051;-76
2023/08/12 08:45:03;;;;;;;8.68;2.80;;;21.70;76.80;;;;;;4965170;28;20027;-77
2023/08/12 08:47:29;;;;;;;7.72;2.83;;;21.70;76.30;;;;;;4953346;28;20511;-79
2023/08/12 08:49:56;;;;;;;11.18;2.78;;;21.80;76.00;;;;;;4949286;28;20055;-76
2023/08/12 08:52:23;;;;;;;8.82;3.40;;;21.80;75.30;;;;;;4952316;28;20451;-78
2023/08/12 08:54:50;;;;;;;11.52;2.78;;;21.60;76.00;;;;;;4972814;28;20469;-78
2023/08/12 08:57:16;;;;;;;9.52;2.67;;;21.80;76.40;;;;;;4952273;28;20071;-78
2023/08/12 08:59:41;;;;;;;9.18;2.80;;;21.90;75.60;;;;;;4951247;28;20030;-76
2023/08/12 09:02:17;;;;;;;8.63;2.42;;;21.90;75.70;;;;;;4966533;28;20039;-76
2023/08/12 09:04:45;;;;;;;6.90;2.47;;;22.00;75.00;;;;;;4978207;28;20049;-77
2023/08/12 09:07:13;;;;;;;8.77;3.03;;;22.30;74.20;;;;;;4962291;28;20039;-76
2023/08/12 09:09:41;;;;;;;9.20;2.90;;;22.30;74.20;;;;;;4957524;28;20031;-77
2023/08/12 09:12:09;;;;;;;6.60;2.75;;;21.90;74.80;;;;;;4956723;28;20031;-76
2023/08/12 09:14:35;;;;;;;7.90;2.65;;;21.80;75.60;;;;;;4956387;28;20033;-76
2023/08/12 09:17:01;;;;;;;8.73;2.78;;;21.90;74.40;;;;;;4950934;28;20396;-76
2023/08/12 09:19:27;;;;;;;9.40;3.10;;;21.90;74.20;;;;;;4954889;28;20046;-77
2023/08/12 09:21:56;;;;;;;9.93;3.13;;;21.70;74.40;;;;;;4949927;28;20038;-76
2023/08/12 09:24:26;;;;;;;10.40;3.10;;;21.50;76.10;;;;;;4949999;28;20373;-76
2023/08/12 09:26:52;;;;;;;7.40;2.78;;;21.40;76.00;;;;;;4959422;28;20035;-77
2023/08/12 09:29:22;;;;;;;8.55;3.17;;;21.50;76.20;;;;;;4966347;28;20035;-77
2023/08/12 09:31:47;;;;;;;7.93;3.28;;;21.60;76.30;;;;;;4960416;28;20042;-77
2023/08/12 09:34:13;;;;;;;9.73;3.03;;;22.10;75.90;;;;;;4965071;28;20031;-76
2023/08/12 09:36:40;;;;;;;7.18;3.20;;;22.70;75.40;;;;;;4963751;28;20031;-77
2023/08/12 09:39:08;;;;;;;9.13;2.90;;;22.90;71.10;;;;;;4964162;28;20105;-77
2023/08/12 09:41:34;;;;;;;9.88;3.42;;;22.60;72.00;;;;;;4962134;28;20058;-77
2023/08/12 09:44:02;;;;;;;9.18;3.08;;;22.60;72.20;;;;;;4965494;28;20039;-78
2023/08/12 09:46:28;;;;;;;9.75;2.75;;;23.00;73.40;;;;;;4961394;28;20133;-76
2023/08/12 09:48:54;;;;;;;10.30;2.75;;;23.40;71.90;;;;;;4953316;28;20065;-75
2023/08/12 09:51:23;;;;;;;9.00;2.60;;;23.70;70.00;;;;;;4976456;28;20027;-74
2023/08/12 09:53:50;;;;;;;7.93;2.58;;;23.60;69.80;;;;;;4977158;28;20062;-74
2023/08/12 09:56:19;;;;;;;6.18;2.30;;;23.80;68.60;;;;;;4963917;28;20046;-77
2023/08/12 09:58:48;;;;;;;8.75;2.40;;;24.10;66.20;;;;;;4940178;28;20031;-75
2023/08/12 10:01:18;;;;;;;12.18;3.17;;;24.20;66.20;;;;;;4936504;28;20054;-75
2023/08/12 10:03:49;;;;;;;8.52;2.33;;;24.40;65.80;;;;;;4927426;28;20031;-73
2023/08/12 10:06:15;;;;;;;6.45;2.15;;;24.40;64.80;;;;;;4941976;28;20109;-74
2023/08/12 10:08:41;;;;;;;8.43;2.38;;;24.50;65.60;;;;;;4956901;28;20749;-76
2023/08/12 10:11:09;;;;;;;9.82;2.70;;;24.20;67.30;;;;;;4956228;28;20049;-75
2023/08/12 10:13:35;;;;;;;7.75;2.47;;;24.00;66.70;;;;;;4957927;28;20799;-75
2023/08/12 10:16:01;;;;;;;9.35;2.60;;;24.30;67.00;;;;;;4957812;28;20117;-76
2023/08/12 10:18:30;;;;;;;8.77;2.30;;;24.50;64.80;;;;;;4957068;28;20037;-76
2023/08/12 10:20:59;;;;;;;9.02;2.58;;;24.70;64.00;;;;;;4954384;28;20058;-77
2023/08/12 10:23:25;;;;;;;8.27;2.13;;;24.90;63.70;;;;;;4955998;28;20042;-78
2023/08/12 10:25:54;;;;;;;9.55;2.50;;;24.70;64.90;;;;;;4961106;28;20075;-77
2023/08/12 10:28:20;;;;;;;9.32;2.85;;;25.00;64.40;;;;;;4960277;28;20444;-76
2023/08/12 10:30:46;;;;;;;7.80;2.28;;;25.00;62.70;;;;;;4968867;28;20027;-77
2023/08/12 10:33:16;;;;;;;9.10;2.60;;;24.70;64.00;;;;;;4962708;28;20039;-75
2023/08/12 10:35:47;;;;;;;9.13;2.53;;;25.00;63.40;;;;;;4959587;28;20456;-76
2023/08/12 10:38:20;;;;;;;9.70;2.40;;;25.20;64.00;;;;;;4960535;28;20019;-75
2023/08/12 10:40:47;;;;;;;10.38;2.70;;;25.30;61.80;;;;;;4961930;28;20062;-76
2023/08/12 10:43:13;;;;;;;9.73;2.47;;;24.70;62.30;;;;;;4959917;28;20169;-74
2023/08/12 10:45:57;;;;;;;9.23;2.33;;;24.90;63.50;;;;;;4962162;28;20066;-77
2023/08/12 10:48:24;;;;;;;7.10;2.33;;;25.10;62.60;;;;;;4961725;28;20511;-77
2023/08/12 10:50:58;;;;;;;8.07;2.20;;;25.10;62.40;;;;;;4964836;28;20061;-77
2023/08/12 10:53:33;;;;;;;9.18;2.13;;;25.00;62.00;;;;;;4971268;28;20598;-76
2023/08/12 10:56:01;;;;;;;8.80;2.25;;;25.10;61.70;;;;;;4971980;28;20299;-76
2023/08/12 10:58:47;;;;;;;11.25;2.50;;;25.30;62.10;;;;;;4969595;28;20030;-79
2023/08/12 11:01:19;;;;;;;8.82;2.72;;;25.20;61.90;;;;;;5005094;28;20476;-80
2023/08/12 11:03:45;;;;;;;8.77;2.88;;;25.40;62.70;;;;;;4973373;28;20034;-77
2023/08/12 11:06:11;;;;;;;7.72;2.10;;;25.60;61.90;;;;;;4973079;28;20067;-83
2023/08/12 11:08:46;;;;;;;8.25;2.05;;;25.60;61.10;;;;;;4944099;28;20038;-78
2023/08/12 11:11:24;;;;;;;10.43;2.38;;;25.60;60.00;;;;;;4946132;28;20039;-77
2023/08/12 11:13:57;;;;;;;8.15;1.98;;;25.80;58.50;;;;;;4945038;28;20031;-81
2023/08/12 11:16:36;;;;;;;9.25;2.20;;;25.80;59.30;;;;;;4946051;28;20032;-78
2023/08/12 11:19:03;;;;;;;7.65;2.17;;;25.60;59.40;;;;;;4948589;28;20035;-81
2023/08/12 11:21:30;;;;;;;10.00;2.17;;;25.80;60.30;;;;;;4956945;28;20596;-79
2023/08/12 11:23:56;;;;;;;6.43;1.90;;;25.40;58.10;;;;;;4974750;28;20049;-78
2023/08/12 11:26:25;;;;;;;9.50;2.17;;;25.50;58.50;;;;;;4964343;28;20779;-77
2023/08/12 11:28:50;;;;;;;6.78;2.30;;;25.20;59.90;;;;;;4965703;28;20042;-76
2023/08/12 11:31:17;;;;;;;6.80;1.88;;;25.70;60.20;;;;;;4966807;28;20043;-80
2023/08/12 11:33:43;;;;;;;9.10;2.20;;;26.00;60.50;;;;;;4982054;28;20149;-77
2023/08/12 11:36:09;;;;;;;7.80;2.03;;;25.80;56.40;;;;;;4967141;28;20558;-80
2023/08/12 11:38:35;;;;;;;9.60;2.35;;;25.30;58.80;;;;;;4966207;28;20041;-78
2023/08/12 11:41:02;;;;;;;8.93;2.30;;;25.60;59.40;;;;;;4960908;28;20039;-79
2023/08/12 11:43:30;;;;;;;6.40;2.10;;;26.00;59.10;;;;;;4943850;28;20141;-78
2023/08/12 11:45:56;;;;;;;9.80;2.03;;;26.10;59.10;;;;;;4942629;29;20039;-82
2023/08/12 11:48:23;;;;;;;7.10;2.10;;;25.90;56.70;;;;;;4945090;29;20996;-78
2023/08/12 11:50:49;;;;;;;10.68;2.45;;;25.70;54.80;;;;;;4941377;28;20833;-82
2023/08/12 11:53:15;;;;;;;7.68;2.15;;;25.60;56.20;;;;;;4959710;28;20065;-81
2023/08/12 11:55:40;;;;;;;9.55;2.53;;;25.30;56.80;;;;;;4942518;28;20038;-81
2023/08/12 11:58:06;;;;;;;9.93;2.00;;;25.60;57.60;;;;;;4957514;28;20031;-81
2023/08/12 12:00:33;;;;;;;8.93;2.10;;;25.70;56.70;;;;;;4944775;28;20035;-82
2023/08/12 12:02:59;;;;;;;9.88;2.35;;;26.00;55.30;;;;;;4942097;29;20031;-79
2023/08/12 12:05:32;;;;;;;9.63;2.72;;;26.20;54.80;;;;;;4941156;28;20027;-83
2023/08/12 12:07:59;;;;;;;9.90;2.72;;;26.50;53.90;;;;;;4946653;29;20034;-82
2023/08/12 12:10:32;;;;;;;8.73;2.65;;;26.30;53.40;;;;;;4945069;28;20031;-82
2023/08/12 12:13:00;;;;;;;7.57;2.80;;;26.30;53.20;;;;;;4942273;29;20035;-81
2023/08/12 12:15:26;;;;;;;10.32;3.05;;;26.40;53.40;;;;;;4943349;28;20031;-82
2023/08/12 12:17:52;;;;;;;10.98;2.38;;;26.50;53.80;;;;;;4947948;28;20033;-81
2023/08/12 12:20:19;;;;;;;8.27;2.35;;;26.40;54.30;;;;;;4945017;28;20151;-82
2023/08/12 12:22:45;;;;;;;12.15;2.78;;;26.20;55.20;;;;;;4948840;29;20038;-81
2023/08/12 12:25:13;;;;;;;10.25;2.05;;;26.20;53.10;;;;;;4947250;28;20024;-80
2023/08/12 12:27:39;;;;;;;8.93;2.67;;;26.10;54.70;;;;;;4946834;28;20396;-80
2023/08/12 12:30:09;;;;;;;9.88;2.30;;;26.40;53.70;;;;;;4946095;28;20198;-81
2023/08/12 12:32:35;;;;;;;8.98;2.33;;;26.40;52.50;;;;;;4945233;28;20480;-81
2023/08/12 12:35:01;;;;;;;7.68;2.47;;;26.40;53.20;;;;;;4945986;29;20288;-80
2023/08/12 12:37:27;;;;;;;10.35;2.42;;;25.90;53.60;;;;;;4945507;28;20062;-81
2023/08/12 12:39:53;;;;;;;9.65;2.28;;;25.40;54.10;;;;;;4940794;28;20035;-80